createdAt,value
2022-09-06T00:02:01.699Z,98.57
2022-09-06T00:04:29.495Z,92.07
2022-09-06T00:06:57.268Z,98.95
2022-09-06T00:09:25.218Z,95.43
2022-09-06T00:11:54.385Z,99.65
2022-09-06T00:14:22.177Z,114.15
2022-09-06T00:16:50.247Z,110.15
2022-09-06T00:19:17.912Z,104.43
2022-09-06T00:21:45.585Z,109.75
2022-09-06T00:24:13.318Z,112.97
2022-09-06T00:26:41.100Z,92.80
2022-09-06T00:29:10.167Z,98.88
2022-09-06T00:31:37.811Z,93.80
2022-09-06T00:34:05.585Z,102.68
2022-09-06T00:36:33.311Z,99.00
2022-09-06T00:39:01.028Z,100.15
2022-09-06T00:41:28.976Z,97.22
2022-09-06T00:43:56.733Z,101.35
2022-09-06T00:46:30.111Z,106.90
2022-09-06T00:49:02.703Z,110.68
2022-09-06T00:51:33.654Z,109.07
2022-09-06T00:54:04.025Z,124.13
2022-09-06T00:56:33.947Z,134.82
2022-09-06T00:59:02.428Z,137.02
2022-09-06T01:01:31.679Z,135.23
2022-09-06T01:03:59.737Z,126.60
2022-09-06T01:06:39.669Z,124.07
2022-09-06T01:09:16.901Z,128.38
2022-09-06T01:12:05.995Z,128.07
2022-09-06T01:14:45.995Z,123.07
2022-09-06T01:17:27.076Z,138.73
2022-09-06T01:20:33.497Z,144.88
2022-09-06T01:23:19.470Z,143.40
2022-09-06T01:26:00.292Z,146.63
2022-09-06T01:28:33.845Z,141.18
2022-09-06T01:31:12.549Z,149.30
2022-09-06T01:33:49.555Z,141.63
2022-09-06T01:36:20.746Z,157.20
2022-09-06T01:38:48.408Z,152.68
2022-09-06T01:41:16.072Z,153.40
2022-09-06T01:43:49.305Z,149.05
2022-09-06T01:46:23.351Z,154.35
2022-09-06T01:49:03.604Z,167.63
2022-09-06T01:51:38.814Z,155.00
2022-09-06T01:54:26.158Z,168.68
2022-09-06T01:57:09.814Z,152.15
2022-09-06T01:59:58.603Z,143.00
2022-09-06T02:02:34.599Z,147.05
2022-09-06T02:05:07.427Z,151.85
2022-09-06T02:07:37.973Z,140.73
2022-09-06T02:10:10.153Z,151.70
2022-09-06T02:12:42.172Z,167.73
2022-09-06T02:15:15.313Z,149.02
2022-09-06T02:17:48.635Z,166.85
2022-09-06T02:20:21.491Z,167.02
2022-09-06T02:22:52.113Z,164.05
2022-09-06T02:25:25.499Z,152.40
2022-09-06T02:27:53.780Z,161.75
2022-09-06T02:30:22.877Z,170.60
2022-09-06T02:32:55.415Z,156.48
2022-09-06T02:35:23.434Z,161.20
2022-09-06T02:37:52.088Z,169.65
2022-09-06T02:40:20.332Z,160.13
2022-09-06T02:42:48.013Z,164.98
2022-09-06T02:45:15.883Z,162.95
2022-09-06T02:47:44.856Z,157.77
2022-09-06T02:50:13.209Z,158.98
2022-09-06T02:52:40.905Z,158.32
2022-09-06T02:55:09.325Z,155.20
2022-09-06T02:57:37.009Z,171.82
2022-09-06T03:00:05.711Z,177.65
2022-09-06T03:02:33.502Z,168.32
2022-09-06T03:05:02.933Z,166.63
2022-09-06T03:07:30.716Z,167.15
2022-09-06T03:09:58.424Z,181.75
2022-09-06T03:12:26.088Z,176.70
2022-09-06T03:14:55.095Z,178.90
2022-09-06T03:17:23.059Z,180.70
2022-09-06T03:19:50.788Z,195.00
2022-09-06T03:22:19.800Z,210.73
2022-09-06T03:24:48.887Z,211.35
2022-09-06T03:27:16.531Z,215.63
2022-09-06T03:29:44.185Z,239.35
2022-09-06T03:32:11.882Z,275.05
2022-09-06T03:34:39.589Z,280.42
2022-09-06T03:37:07.301Z,292.35
2022-09-06T03:39:36.328Z,311.73
2022-09-06T03:42:04.267Z,343.33
2022-09-06T03:44:31.930Z,351.65
2022-09-06T03:46:59.671Z,365.08
2022-09-06T03:49:27.408Z,351.75
2022-09-06T03:51:55.155Z,365.40
2022-09-06T03:54:24.448Z,362.52
2022-09-06T03:56:53.465Z,338.70
2022-09-06T03:59:21.138Z,353.25
2022-09-06T04:01:48.801Z,333.23
2022-09-06T04:04:16.475Z,339.33
2022-09-06T04:06:44.161Z,329.92
2022-09-06T04:09:11.839Z,329.73
2022-09-06T04:11:39.563Z,322.42
2022-09-06T04:14:08.571Z,318.33
2022-09-06T04:16:36.305Z,314.80
2022-09-06T04:19:04.518Z,335.77
2022-09-06T04:21:32.761Z,320.25
2022-09-06T04:24:00.476Z,304.60
2022-09-06T04:26:28.164Z,330.02
2022-09-06T04:28:55.896Z,319.30
2022-09-06T04:31:24.898Z,315.70
2022-09-06T04:33:53.084Z,319.77
2022-09-06T04:36:20.745Z,311.27
2022-09-06T04:38:48.423Z,315.85
2022-09-06T04:41:18.652Z,291.52
2022-09-06T04:43:46.437Z,301.63
2022-09-06T04:46:25.774Z,320.00
2022-09-06T04:48:54.706Z,303.35
2022-09-06T04:51:23.263Z,312.45
2022-09-06T04:53:51.385Z,313.00
2022-09-06T04:56:20.898Z,294.23
2022-09-06T04:58:50.300Z,300.63
2022-09-06T05:01:18.461Z,298.98
2022-09-06T05:03:47.624Z,304.13
2022-09-06T05:06:21.652Z,276.70
2022-09-06T05:08:49.969Z,288.80
2022-09-06T05:11:18.413Z,300.40
2022-09-06T05:13:47.464Z,296.17
2022-09-06T05:16:15.363Z,293.25
2022-09-06T05:18:44.196Z,301.33
2022-09-06T05:21:13.228Z,309.45
2022-09-06T05:23:40.991Z,315.00
2022-09-06T05:26:09.154Z,320.08
2022-09-06T05:28:36.897Z,329.35
2022-09-06T05:31:08.993Z,332.13
2022-09-06T05:33:36.629Z,336.52
2022-09-06T05:36:04.545Z,340.95
2022-09-06T05:38:33.985Z,330.95
2022-09-06T05:41:01.958Z,335.27
2022-09-06T05:43:29.685Z,340.88
2022-09-06T05:45:57.425Z,339.05
2022-09-06T05:48:25.249Z,331.60
2022-09-06T05:51:01.215Z,331.20
2022-09-06T05:53:36.600Z,325.98
2022-09-06T05:56:06.039Z,318.55
2022-09-06T05:58:34.328Z,332.25
2022-09-06T06:01:09.581Z,322.77
2022-09-06T06:03:37.328Z,320.83
2022-09-06T06:06:05.173Z,324.60
2022-09-06T06:08:32.897Z,302.45
2022-09-06T06:11:02.262Z,298.90
2022-09-06T06:13:34.714Z,283.48
2022-09-06T06:16:03.163Z,266.25
2022-09-06T06:18:30.884Z,267.08
2022-09-06T06:21:09.357Z,253.15
2022-09-06T06:23:37.364Z,234.80
2022-09-06T06:26:07.256Z,238.70
2022-09-06T06:28:35.611Z,226.48
2022-09-06T06:31:03.440Z,236.85
2022-09-06T06:33:31.179Z,226.98
2022-09-06T06:36:00.555Z,228.32
2022-09-06T06:38:32.745Z,226.05
2022-09-06T06:41:05.839Z,210.50
2022-09-06T06:43:37.701Z,223.23
2022-09-06T06:46:05.863Z,210.27
2022-09-06T06:48:33.659Z,203.65
2022-09-06T06:51:01.747Z,203.43
2022-09-06T06:53:29.491Z,204.52
2022-09-06T06:55:57.144Z,199.30
2022-09-06T06:58:25.000Z,194.30
2022-09-06T07:00:54.370Z,213.40
2022-09-06T07:03:22.069Z,197.25
2022-09-06T07:08:38.197Z,195.60
2022-09-06T07:11:06.781Z,198.05
2022-09-06T07:13:34.867Z,189.48
2022-09-06T07:16:12.210Z,180.63
2022-09-06T07:18:42.058Z,160.43
2022-09-06T07:24:07.922Z,151.55
2022-09-06T07:26:37.533Z,147.20
2022-09-06T07:29:06.639Z,153.05
2022-09-06T07:34:26.303Z,149.02
2022-09-06T07:36:54.458Z,144.05
2022-09-06T07:39:22.550Z,143.88
2022-09-06T07:41:50.251Z,137.80
2022-09-06T07:44:17.869Z,128.75
2022-09-06T07:46:47.158Z,114.00
2022-09-06T07:49:14.920Z,106.70
2022-09-06T07:51:42.587Z,94.72
2022-09-06T07:54:29.906Z,99.38
2022-09-06T07:56:58.468Z,95.72
2022-09-06T07:59:27.410Z,99.47
2022-09-06T08:01:56.462Z,107.47
2022-09-06T08:04:24.243Z,100.85
2022-09-06T08:09:41.059Z,95.70
2022-09-06T08:12:09.635Z,93.00
2022-09-06T08:14:37.297Z,93.75
2022-09-06T08:17:06.449Z,89.50
2022-09-06T08:19:34.448Z,92.03
2022-09-06T08:22:02.275Z,81.38
2022-09-06T08:24:30.357Z,84.28
2022-09-06T08:26:58.070Z,85.00
2022-09-06T08:29:25.940Z,88.05
2022-09-06T08:31:54.028Z,87.40
2022-09-06T08:34:23.096Z,93.43
2022-09-06T08:36:50.816Z,90.82
2022-09-06T08:39:19.651Z,94.47
2022-09-06T08:41:52.813Z,94.68
2022-09-06T08:47:13.811Z,87.97
2022-09-06T08:49:44.905Z,91.25
2022-09-06T08:52:32.645Z,95.45
2022-09-06T08:55:14.151Z,90.53
2022-09-06T08:57:55.382Z,80.32
2022-09-06T09:00:23.626Z,71.63
2022-09-06T09:02:56.114Z,70.00
2022-09-06T09:05:31.176Z,70.28
2022-09-06T09:08:08.714Z,62.95
2022-09-06T09:10:43.029Z,63.88
2022-09-06T09:13:23.213Z,68.07
2022-09-06T09:15:50.976Z,60.67
2022-09-06T09:18:23.777Z,60.20
2022-09-06T09:20:53.404Z,54.45
2022-09-06T09:23:21.104Z,49.67
2022-09-06T09:25:52.561Z,47.00
2022-09-06T09:28:23.570Z,46.45
2022-09-06T09:30:53.609Z,43.15
2022-09-06T09:33:30.458Z,43.88
2022-09-06T09:36:02.005Z,42.70
2022-09-06T09:38:33.683Z,41.17
2022-09-06T09:41:03.682Z,39.97
2022-09-06T09:43:32.611Z,39.25
2022-09-06T09:46:30.680Z,40.75
2022-09-06T09:49:04.807Z,33.63
2022-09-06T09:51:35.803Z,32.13
2022-09-06T09:54:05.415Z,31.75
2022-09-06T09:56:44.575Z,31.77
2022-09-06T09:59:27.687Z,33.88
2022-09-06T10:01:59.892Z,33.17
2022-09-06T10:04:49.264Z,33.08
2022-09-06T10:07:20.743Z,31.35
2022-09-06T10:09:50.100Z,34.28
2022-09-06T10:12:20.061Z,30.95
2022-09-06T10:14:49.869Z,30.55
2022-09-06T10:17:23.184Z,31.67
2022-09-06T10:19:50.859Z,28.42
2022-09-06T10:22:28.325Z,26.17
2022-09-06T10:25:20.493Z,25.60
2022-09-06T10:28:10.844Z,27.08
2022-09-06T10:30:44.481Z,30.08
2022-09-06T10:33:26.262Z,29.08
2022-09-06T10:35:57.831Z,29.13
2022-09-06T10:38:42.654Z,29.70
2022-09-06T10:41:30.763Z,30.10
2022-09-06T10:44:06.255Z,30.92
2022-09-06T10:46:36.016Z,34.45
2022-09-06T10:49:03.768Z,36.08
2022-09-06T10:51:38.772Z,36.40
2022-09-06T10:54:10.906Z,35.85
2022-09-06T10:56:44.341Z,38.30
2022-09-06T11:02:13.903Z,37.58
2022-09-06T11:07:32.139Z,34.08
2022-09-06T11:10:05.945Z,33.78
2022-09-06T11:12:40.179Z,33.97
2022-09-06T11:15:12.591Z,32.22
2022-09-06T11:17:46.993Z,32.15
2022-09-06T11:20:21.117Z,35.05
2022-09-06T11:23:21.216Z,34.80
2022-09-06T11:26:05.478Z,27.42
2022-09-06T11:28:38.306Z,30.08
2022-09-06T11:31:07.547Z,27.67
2022-09-06T11:33:39.696Z,22.98
2022-09-06T11:36:19.761Z,16.58
2022-09-06T11:38:56.266Z,14.10
2022-09-06T11:41:31.177Z,12.15
2022-09-06T11:43:59.637Z,11.68
2022-09-06T11:47:01.177Z,12.90
2022-09-06T11:49:32.604Z,12.60
2022-09-06T11:52:00.369Z,11.63
2022-09-06T11:54:42.876Z,10.93
2022-09-06T11:57:16.441Z,12.07
2022-09-06T11:59:55.578Z,12.20
2022-09-06T12:02:36.655Z,11.80
2022-09-06T12:05:14.345Z,11.98
2022-09-06T12:08:30.147Z,11.70
2022-09-06T12:11:01.057Z,11.85
2022-09-06T12:13:55.347Z,11.57
2022-09-06T12:16:23.953Z,11.55
2022-09-06T12:19:10.407Z,11.73
2022-09-06T12:21:45.983Z,11.32
2022-09-06T12:24:51.091Z,10.20
2022-09-06T12:27:20.202Z,11.15
2022-09-06T12:29:58.062Z,10.35
2022-09-06T12:32:31.699Z,10.43
2022-09-06T12:37:56.360Z,11.38
2022-09-06T12:40:26.316Z,10.82
2022-09-06T12:42:54.977Z,10.77
2022-09-06T12:45:27.576Z,11.88
2022-09-06T12:48:06.354Z,11.00
2022-09-06T12:50:34.154Z,11.07
2022-09-06T12:53:03.661Z,10.77
2022-09-06T12:55:33.626Z,10.68
2022-09-06T12:58:04.896Z,11.55
2022-09-06T13:00:37.510Z,10.93
2022-09-06T13:03:15.778Z,11.23
2022-09-06T13:05:45.626Z,12.05
2022-09-06T13:08:19.465Z,11.23
2022-09-06T13:10:48.832Z,9.77
2022-09-06T13:13:22.851Z,8.95
2022-09-06T13:15:52.809Z,8.90
2022-09-06T13:18:23.432Z,8.55
2022-09-06T13:21:02.435Z,10.30
2022-09-06T13:23:31.033Z,10.60
2022-09-06T13:25:58.935Z,9.88
2022-09-06T13:28:28.745Z,9.60
2022-09-06T13:31:07.959Z,9.48
2022-09-06T13:33:37.605Z,8.63
2022-09-06T13:36:09.338Z,8.00
2022-09-06T13:38:41.279Z,7.32
2022-09-06T13:41:46.638Z,7.00
2022-09-06T13:44:31.038Z,7.80
2022-09-06T13:46:59.011Z,7.30
2022-09-06T13:49:27.201Z,7.45
2022-09-06T13:51:56.312Z,7.38
2022-09-06T13:54:23.950Z,7.50
2022-09-06T13:56:51.823Z,7.57
2022-09-06T13:59:20.360Z,7.95
2022-09-06T14:01:57.113Z,7.47
2022-09-06T14:04:25.482Z,7.43
2022-09-06T14:06:53.991Z,8.15
2022-09-06T14:09:21.833Z,7.95
2022-09-06T14:11:49.548Z,7.75
2022-09-06T14:14:17.673Z,7.68
2022-09-06T14:16:45.591Z,7.75
2022-09-06T14:19:15.235Z,8.05
2022-09-06T14:21:43.216Z,7.78
2022-09-06T14:24:10.967Z,8.88
2022-09-06T14:26:39.373Z,8.00
2022-09-06T14:29:08.154Z,11.25
2022-09-06T14:31:35.899Z,9.55
2022-09-06T14:34:04.201Z,13.13
2022-09-06T14:36:34.168Z,11.63
2022-09-06T14:39:02.798Z,10.57
2022-09-06T14:41:30.545Z,13.93
2022-09-06T14:43:59.526Z,10.27
2022-09-06T14:46:28.841Z,12.27
2022-09-06T14:49:00.972Z,11.50
2022-09-06T14:51:29.598Z,10.73
2022-09-06T14:54:01.001Z,12.45
2022-09-06T14:56:30.245Z,13.10
2022-09-06T14:58:59.712Z,14.15
2022-09-06T15:01:31.105Z,14.95
2022-09-06T15:04:03.583Z,14.43
2022-09-06T15:06:33.526Z,15.52
2022-09-06T15:09:02.736Z,15.38
2022-09-06T15:11:34.661Z,15.52
2022-09-06T15:14:04.058Z,14.50
2022-09-06T15:16:32.732Z,14.18
2022-09-06T15:19:02.187Z,14.88
2022-09-06T15:21:30.275Z,17.95
2022-09-06T15:23:58.780Z,22.13
2022-09-06T15:26:28.173Z,23.70
2022-09-06T15:28:56.393Z,33.58
2022-09-06T15:31:24.320Z,40.55
2022-09-06T15:33:53.572Z,48.50
2022-09-06T15:36:21.878Z,49.08
2022-09-06T15:38:52.239Z,52.75
2022-09-06T15:41:23.403Z,57.47
2022-09-06T15:43:56.635Z,54.30
2022-09-06T15:46:42.834Z,55.40
2022-09-06T15:49:12.742Z,57.53
2022-09-06T15:51:42.135Z,55.00
2022-09-06T15:54:11.768Z,57.25
2022-09-06T15:56:39.610Z,60.63
2022-09-06T15:59:09.154Z,57.55
2022-09-06T16:01:37.577Z,56.08
2022-09-06T16:04:06.619Z,56.92
2022-09-06T16:06:37.097Z,61.63
2022-09-06T16:09:07.511Z,62.75
2022-09-06T16:11:36.715Z,58.58
2022-09-06T16:14:06.225Z,64.82
2022-09-06T16:16:36.025Z,72.68
2022-09-06T16:19:04.086Z,71.25
2022-09-06T16:21:33.423Z,74.32
2022-09-06T16:24:02.961Z,76.97
2022-09-06T16:26:33.152Z,79.30
2022-09-06T16:29:03.313Z,86.13
2022-09-06T16:31:32.839Z,81.32
2022-09-06T16:34:03.624Z,75.50
2022-09-06T16:36:31.748Z,75.65
2022-09-06T16:38:59.595Z,79.95
2022-09-06T16:41:32.143Z,77.80
2022-09-06T16:44:00.018Z,83.63
2022-09-06T16:46:29.317Z,90.57
2022-09-06T16:49:00.036Z,91.15
2022-09-06T16:51:31.099Z,111.28
2022-09-06T16:54:00.269Z,120.18
2022-09-06T16:56:29.235Z,133.60
2022-09-06T16:58:58.897Z,137.27
2022-09-06T17:01:28.344Z,149.68
2022-09-06T17:03:57.349Z,171.57
2022-09-06T17:06:25.396Z,186.90
2022-09-06T17:08:58.309Z,212.85
2022-09-06T17:11:27.181Z,253.15
2022-09-06T17:13:56.188Z,273.67
2022-09-06T17:16:41.993Z,303.73
2022-09-06T17:19:10.268Z,353.58
2022-09-06T17:21:39.053Z,370.73
2022-09-06T17:24:09.555Z,411.38
2022-09-06T17:26:39.170Z,387.80
2022-09-06T17:29:07.312Z,395.70
2022-09-06T17:31:35.587Z,393.50
2022-09-06T17:34:03.688Z,415.98
2022-09-06T17:36:33.301Z,414.85
2022-09-06T17:39:02.778Z,414.90
2022-09-06T17:41:36.530Z,412.55
2022-09-06T17:44:05.541Z,401.92
2022-09-06T17:46:33.732Z,398.75
2022-09-06T17:49:01.518Z,409.08
2022-09-06T17:51:29.546Z,400.17
2022-09-06T17:53:57.308Z,419.77
2022-09-06T17:56:25.572Z,399.25
2022-09-06T17:58:56.373Z,405.35
2022-09-06T18:01:26.096Z,396.17
2022-09-06T18:03:54.476Z,406.00
2022-09-06T18:06:24.108Z,407.15
2022-09-06T18:08:53.433Z,392.58
2022-09-06T18:11:23.399Z,377.40
2022-09-06T18:13:58.034Z,414.38
2022-09-06T18:16:26.818Z,394.63
2022-09-06T18:18:56.753Z,378.50
2022-09-06T18:21:26.559Z,380.35
2022-09-06T18:23:55.218Z,379.45
2022-09-06T18:26:23.264Z,374.75
2022-09-06T18:28:52.900Z,364.60
2022-09-06T18:31:23.918Z,348.45
2022-09-06T18:33:51.992Z,351.15
2022-09-06T18:36:20.404Z,350.35
2022-09-06T18:38:48.254Z,349.73
2022-09-06T18:41:31.295Z,348.13
2022-09-06T18:44:02.417Z,343.23
2022-09-06T18:46:32.568Z,356.15
2022-09-06T18:49:00.756Z,340.88
2022-09-06T18:51:29.213Z,346.52
2022-09-06T18:53:59.221Z,315.15
2022-09-06T18:56:27.509Z,282.02
2022-09-06T18:58:58.239Z,274.17
2022-09-06T19:01:28.255Z,235.35
2022-09-06T19:03:58.950Z,235.80
2022-09-06T19:06:28.562Z,222.55
2022-09-06T19:08:59.744Z,209.57
2022-09-06T19:11:27.950Z,196.43
2022-09-06T19:13:57.182Z,196.40
2022-09-06T19:16:26.687Z,194.20
2022-09-06T19:18:56.037Z,192.90
2022-09-06T19:21:27.444Z,186.38
2022-09-06T19:23:57.868Z,190.07
2022-09-06T19:26:27.025Z,180.75
2022-09-06T19:28:56.690Z,191.90
2022-09-06T19:31:26.861Z,182.45
2022-09-06T19:33:55.586Z,161.07
2022-09-06T19:36:26.422Z,154.00
2022-09-06T19:39:03.729Z,147.15
2022-09-06T19:41:34.011Z,131.68
2022-09-06T19:44:05.285Z,132.90
2022-09-06T19:46:33.533Z,121.88
2022-09-06T19:49:02.197Z,121.00
2022-09-06T19:51:32.964Z,122.40
2022-09-06T19:54:01.063Z,110.93
2022-09-06T19:56:31.734Z,116.65
2022-09-06T19:59:01.700Z,112.93
2022-09-06T20:01:31.440Z,112.00
2022-09-06T20:04:00.588Z,115.90
2022-09-06T20:06:28.458Z,108.63
2022-09-06T20:08:59.432Z,113.93
2022-09-06T20:11:29.748Z,109.18
2022-09-06T20:13:58.067Z,110.80
2022-09-06T20:16:26.544Z,110.82
2022-09-06T20:18:56.170Z,111.38
2022-09-06T20:21:23.973Z,114.43
2022-09-06T20:23:54.227Z,111.20
2022-09-06T20:26:24.999Z,112.00
2022-09-06T20:28:56.674Z,112.50
2022-09-06T20:31:24.750Z,110.50
2022-09-06T20:33:53.078Z,104.25
2022-09-06T20:36:21.562Z,112.25
2022-09-06T20:38:50.038Z,104.78
2022-09-06T20:41:19.289Z,110.85
2022-09-06T20:43:51.841Z,110.53
2022-09-06T20:46:21.573Z,112.45
2022-09-06T20:48:49.864Z,109.75
2022-09-06T20:51:19.743Z,102.65
2022-09-06T20:53:49.111Z,113.00
2022-09-06T20:56:18.585Z,106.15
2022-09-06T20:58:50.689Z,114.05
2022-09-06T21:01:22.567Z,108.28
2022-09-06T21:03:52.381Z,107.45
2022-09-06T21:06:21.359Z,108.47
2022-09-06T21:08:49.621Z,110.78
2022-09-06T21:11:18.014Z,103.32
2022-09-06T21:13:51.307Z,102.95
2022-09-06T21:16:24.325Z,97.30
2022-09-06T21:18:52.657Z,99.53
2022-09-06T21:21:20.472Z,103.25
2022-09-06T21:23:48.292Z,103.57
2022-09-06T21:26:17.136Z,97.65
2022-09-06T21:28:46.384Z,100.53
2022-09-06T21:31:18.664Z,95.82
2022-09-06T21:33:48.026Z,92.80
2022-09-06T21:36:18.217Z,93.50
2022-09-06T21:38:47.567Z,100.30
2022-09-06T21:41:17.684Z,89.75
2022-09-06T21:43:46.107Z,97.75
2022-09-06T21:46:17.124Z,99.05
2022-09-06T21:48:46.771Z,99.63
2022-09-06T21:51:16.272Z,98.57
2022-09-06T21:53:45.506Z,102.82
2022-09-06T21:56:13.760Z,98.78
2022-09-06T21:58:41.602Z,98.95
2022-09-06T22:01:09.742Z,100.75
2022-09-06T22:03:40.088Z,97.90
2022-09-06T22:06:12.073Z,95.45
2022-09-06T22:08:42.038Z,104.50
2022-09-06T22:11:11.355Z,107.75
2022-09-06T22:13:39.595Z,109.78
2022-09-06T22:16:08.335Z,112.93
2022-09-06T22:18:36.641Z,115.38
2022-09-06T22:21:07.600Z,112.78
2022-09-06T22:23:35.703Z,120.32
2022-09-06T22:26:05.645Z,118.10
2022-09-06T22:28:34.105Z,127.00
2022-09-06T22:31:01.980Z,123.28
2022-09-06T22:33:29.812Z,124.00
2022-09-06T22:35:59.770Z,130.48
2022-09-06T22:38:29.369Z,129.50
2022-09-06T22:40:58.424Z,133.30
2022-09-06T22:43:26.838Z,130.07
2022-09-06T22:45:55.046Z,126.43
2022-09-06T22:48:22.944Z,138.45
2022-09-06T22:50:50.723Z,140.02
2022-09-06T22:53:18.977Z,137.68
2022-09-06T22:55:49.331Z,141.85
2022-09-06T22:58:17.233Z,138.68
2022-09-06T23:00:45.369Z,139.38
2022-09-06T23:03:13.413Z,133.73
2022-09-06T23:05:41.265Z,137.23
2022-09-06T23:08:09.043Z,137.82
2022-09-06T23:10:41.602Z,133.10
2022-09-06T23:13:11.425Z,131.20
2022-09-06T23:15:41.134Z,134.43
2022-09-06T23:18:09.365Z,137.35
2022-09-06T23:20:37.785Z,135.35
2022-09-06T23:23:05.659Z,133.38
2022-09-06T23:25:37.164Z,133.50
2022-09-06T23:28:05.023Z,131.98
2022-09-06T23:30:37.490Z,125.38
2022-09-06T23:33:05.753Z,134.45
2022-09-06T23:35:33.937Z,126.05
2022-09-06T23:38:01.663Z,133.27
2022-09-06T23:40:29.507Z,128.90
2022-09-06T23:42:59.765Z,126.78
2022-09-06T23:45:27.554Z,129.52
2022-09-06T23:47:56.713Z,127.78
2022-09-06T23:50:24.471Z,128.32
2022-09-06T23:52:52.197Z,127.72
2022-09-06T23:55:20.005Z,132.32
2022-09-06T23:57:47.757Z,137.68
